Weather at Trelleborg Airport [CLOSED]

Public forecast

Using degrees Celsius for public forecast. Weather courtesy of forecast.io.

Closest aviation weather report (METAR) to Trelleborg Airport

Closest report is Malmö Sturup Airport, 14.8 nm (27.4 km) NE.

2024/05/30 09:50 (retrieved 38 minutes ago)

ESMS 300950Z 16010KT 9999 FEW020 19/14 Q1008

Closest aviation forecast (TAF) to Trelleborg Airport

Closest forecast is Malmö Sturup Airport, 14.8 nm (27.4 km) NE.

2024/05/30 09:37 (retrieved 51 minutes ago)

TAF ESMS 300816Z 3009/3109 13010KT 9999 SCT020 BKN040 TEMPO 3009/3010 BKN012 FEW020CB TEMPO 3010/3022 SCT020CB TEMPO 3022/3109 3000 BR BKN006 FEW020CB